Time;durP1;ratioP1;P1;durP2;ratioP2;P2;SDS_P1;SDS_P2;PMS_P1;PMS_P2;Temp;Humidity;BMP_temperature;BMP_pressure;BME280_temperature;BME280_humidity;BME280_pressure;Samples;Min_cycle;Max_cycle;Signal;HPM_P1;HPM_P2
2023/04/28 00:00:46;;;;;;;;;;;5.50;99.90;;;;;;5074608;28;19925;-69
2023/04/28 00:03:12;;;;;;;;;;;5.50;99.90;;;;;;5076289;28;19931;-69
2023/04/28 00:05:37;;;;;;;;;;;5.50;99.90;;;;;;5057541;28;19967;-71
2023/04/28 00:08:03;;;;;;;;;;;5.50;99.90;;;;;;5074396;28;19924;-69
2023/04/28 00:10:32;;;;;;;;;;;5.40;99.90;;;;;;5056477;28;19929;-69
2023/04/28 00:12:57;;;;;;;;;;;5.50;99.90;;;;;;5057914;28;20038;-69
2023/04/28 00:15:23;;;;;;;;;;;5.40;99.90;;;;;;5075454;28;19939;-69
2023/04/28 00:17:49;;;;;;;;;;;5.40;99.90;;;;;;5057209;28;19996;-69
2023/04/28 00:20:14;;;;;;;;;;;5.40;99.90;;;;;;5058227;28;19925;-71
2023/04/28 00:22:40;;;;;;;;;;;5.40;99.90;;;;;;5075635;28;19924;-68
2023/04/28 00:25:06;;;;;;;;;;;5.40;99.90;;;;;;5074757;28;19932;-69
2023/04/28 00:27:32;;;;;;;;;;;5.30;99.90;;;;;;5075403;28;20352;-69
2023/04/28 00:29:57;;;;;;;;;;;5.30;99.90;;;;;;5075934;28;19993;-68
2023/04/28 00:32:23;;;;;;;;;;;6.10;99.90;;;;;;5075081;28;19968;-69
2023/04/28 00:34:48;;;;;;;;;;;5.30;99.90;;;;;;5059266;28;19995;-69
2023/04/28 00:37:14;;;;;;;;;;;5.30;99.90;;;;;;5057698;28;19924;-69
2023/04/28 00:39:40;;;;;;;;;;;5.30;99.90;;;;;;5074718;28;19925;-69
2023/04/28 00:42:06;;;;;;;;;;;5.40;99.90;;;;;;5072207;28;19939;-69
2023/04/28 00:44:32;;;;;;;;;;;5.20;99.90;;;;;;5055211;28;19947;-69
2023/04/28 00:46:58;;;;;;;;;;;5.20;99.90;;;;;;5063151;28;19954;-70
2023/04/28 00:49:24;;;;;;;;;;;5.20;99.90;;;;;;5060290;28;19943;-69
2023/04/28 00:51:50;;;;;;;;;;;5.20;99.90;;;;;;5055716;28;19924;-68
2023/04/28 00:54:16;;;;;;;;;;;5.20;99.90;;;;;;5055708;28;19980;-69
2023/04/28 00:56:42;;;;;;;;;;;5.20;99.90;;;;;;5056190;28;20165;-69
2023/04/28 00:59:07;;;;;;;;;;;5.20;99.90;;;;;;5063828;28;19928;-70
2023/04/28 01:01:33;;;;;;;;;;;5.20;99.90;;;;;;5065881;28;19924;-69
2023/04/28 01:03:59;;;;;;;;;;;5.20;99.90;;;;;;5069870;28;19924;-69
2023/04/28 01:06:25;;;;;;;;;;;5.20;99.90;;;;;;5062277;28;19948;-69
2023/04/28 01:08:51;;;;;;;;;;;5.20;99.90;;;;;;5055001;28;19940;-70
2023/04/28 01:11:16;;;;;;;;;;;5.20;99.90;;;;;;5055712;28;19925;-69
2023/04/28 01:13:42;;;;;;;;;;;5.20;99.90;;;;;;5064583;28;20251;-69
2023/04/28 01:16:07;;;;;;;;;;;5.20;99.90;;;;;;5075777;28;19939;-69
2023/04/28 01:18:33;;;;;;;;;;;5.20;99.90;;;;;;5074561;28;19998;-69
2023/04/28 01:20:59;;;;;;;;;;;5.20;99.90;;;;;;5067227;28;20026;-69
2023/04/28 01:23:25;;;;;;;;;;;5.20;99.90;;;;;;5062923;28;19931;-69
2023/04/28 01:25:50;;;;;;;;;;;5.20;99.90;;;;;;5062995;28;19929;-69
2023/04/28 01:28:16;;;;;;;;;;;5.20;99.90;;;;;;5073628;28;19971;-70
2023/04/28 01:30:41;;;;;;;;;;;5.20;99.90;;;;;;5074978;28;19924;-69
2023/04/28 01:33:07;;;;;;;;;;;5.20;99.90;;;;;;5072712;28;19924;-69
2023/04/28 01:35:32;;;;;;;;;;;5.20;99.90;;;;;;5061976;28;20417;-69
2023/04/28 01:37:58;;;;;;;;;;;5.40;99.90;;;;;;5064872;28;19928;-69
2023/04/28 01:40:23;;;;;;;;;;;5.20;99.90;;;;;;5074761;28;19970;-69
2023/04/28 01:42:49;;;;;;;;;;;5.20;99.90;;;;;;5073896;28;19926;-69
2023/04/28 01:45:15;;;;;;;;;;;5.20;99.90;;;;;;5074550;28;19931;-69
2023/04/28 01:47:40;;;;;;;;;;;5.30;99.90;;;;;;5073752;28;19925;-70
2023/04/28 01:50:06;;;;;;;;;;;5.30;99.90;;;;;;5067583;28;19932;-70
2023/04/28 01:52:32;;;;;;;;;;;5.30;99.90;;;;;;5055710;28;19925;-68
2023/04/28 01:54:57;;;;;;;;;;;5.30;99.90;;;;;;5074773;28;20027;-68
2023/04/28 01:57:23;;;;;;;;;;;5.30;99.90;;;;;;5074287;28;19924;-70
2023/04/28 01:59:48;;;;;;;;;;;5.30;99.90;;;;;;5055256;28;19934;-69
2023/04/28 02:02:14;;;;;;;;;;;5.30;99.90;;;;;;5073385;28;19925;-68
2023/04/28 02:04:39;;;;;;;;;;;5.30;99.90;;;;;;5073125;28;19925;-69
2023/04/28 02:07:05;;;;;;;;;;;5.30;99.90;;;;;;5073769;28;19970;-69
2023/04/28 02:09:31;;;;;;;;;;;5.40;99.90;;;;;;5073993;28;19924;-69
2023/04/28 02:11:58;;;;;;;;;;;5.40;99.90;;;;;;5073558;28;20363;-68
2023/04/28 02:14:24;;;;;;;;;;;5.40;99.90;;;;;;5070578;28;20072;-69
2023/04/28 02:16:50;;;;;;;;;;;5.40;99.90;;;;;;5074129;28;19928;-69
2023/04/28 02:19:15;;;;;;;;;;;5.40;99.90;;;;;;5070170;28;19928;-70
2023/04/28 02:21:42;;;;;;;;;;;5.40;99.90;;;;;;5056046;28;19924;-69
2023/04/28 02:24:07;;;;;;;;;;;5.40;99.90;;;;;;5071486;28;20381;-69
2023/04/28 02:26:33;;;;;;;;;;;5.40;99.90;;;;;;5063306;28;19925;-69
2023/04/28 02:29:05;;;;;;;;;;;5.30;99.90;;;;;;5057442;28;19924;-70
2023/04/28 02:31:30;;;;;;;;;;;5.40;99.90;;;;;;5059921;28;20395;-70
2023/04/28 02:33:56;;;;;;;;;;;5.30;99.90;;;;;;5063319;28;19925;-69
2023/04/28 02:36:21;;;;;;;;;;;5.30;99.90;;;;;;5074209;28;19924;-69
2023/04/28 02:38:47;;;;;;;;;;;5.30;99.90;;;;;;5064208;28;19925;-69
2023/04/28 02:41:13;;;;;;;;;;;5.40;99.90;;;;;;5061804;28;19928;-68
2023/04/28 02:43:40;;;;;;;;;;;5.40;99.90;;;;;;5073391;28;20019;-69
2023/04/28 02:46:05;;;;;;;;;;;5.40;99.90;;;;;;5073671;28;19924;-68
2023/04/28 02:48:32;;;;;;;;;;;5.40;99.90;;;;;;5068932;28;20449;-69
2023/04/28 02:50:57;;;;;;;;;;;5.40;99.90;;;;;;5053933;28;19932;-69
2023/04/28 02:53:23;;;;;;;;;;;5.40;99.90;;;;;;5053268;28;19924;-69
2023/04/28 02:55:48;;;;;;;;;;;5.40;99.90;;;;;;5053127;28;19975;-69
2023/04/28 02:58:14;;;;;;;;;;;5.50;99.90;;;;;;5053913;28;19948;-69
2023/04/28 03:00:40;;;;;;;;;;;5.50;99.90;;;;;;5060120;28;19924;-70
2023/04/28 03:03:05;;;;;;;;;;;5.50;99.90;;;;;;5037559;28;20298;-69
2023/04/28 03:05:31;;;;;;;;;;;5.50;99.90;;;;;;5072142;28;19993;-69
2023/04/28 03:07:57;;;;;;;;;;;5.50;99.90;;;;;;5054457;28;20324;-70
2023/04/28 03:10:22;;;;;;;;;;;5.50;99.90;;;;;;5063570;28;20006;-69
2023/04/28 03:12:48;;;;;;;;;;;5.60;99.90;;;;;;5052194;28;19978;-68
2023/04/28 03:15:13;;;;;;;;;;;5.50;99.90;;;;;;5063313;28;19928;-69
2023/04/28 03:17:40;;;;;;;;;;;5.50;99.90;;;;;;5053567;28;19932;-68
2023/04/28 03:20:06;;;;;;;;;;;5.50;99.90;;;;;;5065588;28;19964;-69
2023/04/28 03:22:32;;;;;;;;;;;5.50;99.90;;;;;;5073225;28;20404;-69
2023/04/28 03:24:57;;;;;;;;;;;5.50;99.90;;;;;;5065900;28;19929;-69
2023/04/28 03:27:23;;;;;;;;;;;5.50;99.90;;;;;;5061841;28;19931;-69
2023/04/28 03:29:48;;;;;;;;;;;5.50;99.90;;;;;;5053718;28;20004;-69
2023/04/28 03:32:14;;;;;;;;;;;5.80;99.90;;;;;;5053970;28;19924;-69
2023/04/28 03:34:39;;;;;;;;;;;5.50;99.90;;;;;;5070718;28;19925;-69
2023/04/28 03:37:05;;;;;;;;;;;5.40;99.90;;;;;;5073052;28;20381;-69
2023/04/28 03:39:30;;;;;;;;;;;5.40;99.90;;;;;;5072413;28;19925;-68
2023/04/28 03:41:56;;;;;;;;;;;5.40;99.90;;;;;;5069559;28;19925;-69
2023/04/28 03:44:22;;;;;;;;;;;5.40;99.90;;;;;;5073023;28;20301;-69
2023/04/28 03:46:48;;;;;;;;;;;5.50;99.90;;;;;;5072764;28;19924;-69
2023/04/28 03:49:13;;;;;;;;;;;5.40;99.90;;;;;;5071756;28;19998;-69
2023/04/28 03:51:39;;;;;;;;;;;5.40;99.90;;;;;;5071938;28;19925;-70
2023/04/28 03:54:05;;;;;;;;;;;5.40;99.90;;;;;;5072560;28;19924;-69
2023/04/28 03:56:31;;;;;;;;;;;5.40;99.90;;;;;;5061655;28;19924;-69
2023/04/28 03:58:57;;;;;;;;;;;5.40;99.90;;;;;;5034819;28;19968;-69
2023/04/28 04:01:22;;;;;;;;;;;5.40;99.90;;;;;;5056674;28;19929;-69
2023/04/28 04:03:48;;;;;;;;;;;5.40;99.90;;;;;;5062555;28;20019;-69
2023/04/28 04:06:13;;;;;;;;;;;5.40;99.90;;;;;;5072718;28;19971;-68
2023/04/28 04:08:39;;;;;;;;;;;5.40;99.90;;;;;;5062516;28;20361;-68
2023/04/28 04:11:05;;;;;;;;;;;5.40;99.90;;;;;;5052903;28;19968;-68
2023/04/28 04:13:30;;;;;;;;;;;5.40;99.90;;;;;;5052846;28;19932;-69
2023/04/28 04:15:56;;;;;;;;;;;5.40;99.90;;;;;;5053165;28;20066;-69
2023/04/28 04:18:22;;;;;;;;;;;5.50;99.90;;;;;;5066376;28;19949;-70
2023/04/28 04:20:48;;;;;;;;;;;5.40;99.90;;;;;;5070304;28;20386;-70
2023/04/28 04:23:14;;;;;;;;;;;5.50;99.90;;;;;;5057840;28;19925;-69
2023/04/28 04:25:40;;;;;;;;;;;5.50;99.90;;;;;;5053183;28;19951;-71
2023/04/28 04:28:05;;;;;;;;;;;5.50;99.90;;;;;;5068768;28;19968;-70
2023/04/28 04:30:31;;;;;;;;;;;5.60;99.90;;;;;;5072442;28;19932;-70
2023/04/28 04:32:56;;;;;;;;;;;5.50;99.90;;;;;;5071846;28;19926;-69
2023/04/28 04:35:22;;;;;;;;;;;5.60;99.90;;;;;;5071767;28;19929;-69
2023/04/28 04:37:47;;;;;;;;;;;5.90;99.90;;;;;;5056056;28;19924;-70
2023/04/28 04:40:13;;;;;;;;;;;5.60;99.90;;;;;;5061651;28;20035;-67
2023/04/28 04:42:38;;;;;;;;;;;5.60;99.90;;;;;;5055844;28;19925;-67
2023/04/28 04:45:04;;;;;;;;;;;5.60;99.90;;;;;;5062176;28;19932;-67
2023/04/28 04:47:30;;;;;;;;;;;5.60;99.90;;;;;;5073484;28;19928;-68
2023/04/28 04:49:56;;;;;;;;;;;5.60;99.90;;;;;;5065708;28;19930;-68
2023/04/28 04:52:21;;;;;;;;;;;5.60;99.90;;;;;;5075243;28;20007;-68
2023/04/28 04:54:47;;;;;;;;;;;5.70;99.90;;;;;;5075717;28;19947;-68
2023/04/28 04:57:12;;;;;;;;;;;5.60;99.90;;;;;;5058906;28;19925;-68
2023/04/28 04:59:38;;;;;;;;;;;5.70;99.90;;;;;;5067250;28;19924;-69
2023/04/28 05:02:03;;;;;;;;;;;5.70;99.90;;;;;;5071054;28;19925;-69
2023/04/28 05:04:29;;;;;;;;;;;5.70;99.90;;;;;;5055416;28;19972;-69
2023/04/28 05:06:55;;;;;;;;;;;5.70;99.90;;;;;;5055075;28;19971;-69
2023/04/28 05:09:21;;;;;;;;;;;5.70;99.90;;;;;;5055028;28;19925;-69
2023/04/28 05:11:48;;;;;;;;;;;5.70;99.90;;;;;;5059764;28;20303;-69
2023/04/28 05:14:13;;;;;;;;;;;5.70;99.90;;;;;;5075282;28;19959;-69
2023/04/28 05:16:40;;;;;;;;;;;5.70;99.90;;;;;;5074236;28;19929;-69
2023/04/28 05:19:06;;;;;;;;;;;5.70;99.90;;;;;;5063714;28;19962;-69
2023/04/28 05:21:31;;;;;;;;;;;5.80;99.90;;;;;;5060104;28;19928;-69
2023/04/28 05:23:57;;;;;;;;;;;5.80;99.90;;;;;;5020867;28;19975;-69
2023/04/28 05:26:23;;;;;;;;;;;6.00;99.90;;;;;;5063866;28;19924;-69
2023/04/28 05:28:48;;;;;;;;;;;5.80;99.90;;;;;;5074745;28;20012;-68
2023/04/28 05:31:15;;;;;;;;;;;5.80;99.90;;;;;;5061799;28;19936;-69
2023/04/28 05:33:40;;;;;;;;;;;5.80;99.90;;;;;;5068873;28;19924;-68
2023/04/28 05:36:07;;;;;;;;;;;5.90;99.90;;;;;;5074783;28;19925;-68
2023/04/28 05:38:35;;;;;;;;;;;5.90;99.90;;;;;;5074485;28;19925;-68
2023/04/28 05:41:01;;;;;;;;;;;5.90;99.90;;;;;;5073088;28;19924;-68
2023/04/28 05:43:26;;;;;;;;;;;6.00;99.90;;;;;;5074592;28;20271;-68
2023/04/28 05:45:52;;;;;;;;;;;6.00;99.90;;;;;;5073775;28;19999;-68
2023/04/28 05:48:18;;;;;;;;;;;6.00;99.90;;;;;;5072377;28;19924;-68
2023/04/28 05:50:43;;;;;;;;;;;6.00;99.90;;;;;;5074310;28;20332;-68
2023/04/28 05:53:09;;;;;;;;;;;6.10;99.90;;;;;;5073319;28;19948;-68
2023/04/28 05:55:35;;;;;;;;;;;6.10;99.90;;;;;;5074684;28;20385;-68
2023/04/28 05:58:01;;;;;;;;;;;6.20;99.90;;;;;;5074286;28;19925;-68
2023/04/28 06:00:26;;;;;;;;;;;6.20;99.90;;;;;;5073945;28;19931;-69
2023/04/28 06:02:52;;;;;;;;;;;6.20;99.90;;;;;;5073477;28;20341;-68
2023/04/28 06:05:17;;;;;;;;;;;6.30;99.90;;;;;;5074000;28;20298;-68
2023/04/28 06:07:43;;;;;;;;;;;6.50;99.90;;;;;;5073805;28;20038;-68
2023/04/28 06:10:09;;;;;;;;;;;6.30;99.90;;;;;;5056375;28;19925;-68
2023/04/28 06:12:35;;;;;;;;;;;6.40;99.90;;;;;;5074017;28;19951;-69
2023/04/28 06:15:01;;;;;;;;;;;6.40;99.90;;;;;;5055000;28;19983;-69
2023/04/28 06:17:26;;;;;;;;;;;6.40;99.90;;;;;;5055639;28;19976;-69
2023/04/28 06:19:53;;;;;;;;;;;6.50;99.90;;;;;;5073082;28;19928;-68
2023/04/28 06:22:19;;;;;;;;;;;6.50;99.90;;;;;;5073674;28;19925;-68
2023/04/28 06:24:44;;;;;;;;;;;6.50;99.90;;;;;;5055334;28;19924;-68
2023/04/28 06:27:10;;;;;;;;;;;6.60;99.90;;;;;;5071993;28;19974;-68
2023/04/28 06:29:36;;;;;;;;;;;6.60;99.90;;;;;;5073543;28;19925;-68
2023/04/28 06:32:02;;;;;;;;;;;6.60;99.90;;;;;;5073142;28;19975;-68
2023/04/28 06:34:27;;;;;;;;;;;6.70;99.90;;;;;;5072760;28;19982;-68
2023/04/28 06:36:54;;;;;;;;;;;6.70;99.90;;;;;;5072799;28;19924;-68
2023/04/28 06:39:20;;;;;;;;;;;6.70;99.90;;;;;;5059763;28;20347;-68
2023/04/28 06:41:46;;;;;;;;;;;6.80;99.90;;;;;;5073510;28;20015;-68
2023/04/28 06:44:12;;;;;;;;;;;6.80;99.90;;;;;;5071066;28;20375;-69
2023/04/28 06:46:37;;;;;;;;;;;6.80;99.90;;;;;;5035347;28;19924;-68
2023/04/28 06:49:03;;;;;;;;;;;6.80;99.90;;;;;;5068871;28;20358;-69
2023/04/28 06:51:31;;;;;;;;;;;6.90;99.90;;;;;;5073570;28;19925;-68
2023/04/28 06:53:56;;;;;;;;;;;6.90;99.90;;;;;;5065231;28;19936;-69
2023/04/28 06:56:22;;;;;;;;;;;6.90;99.90;;;;;;5066325;28;19925;-69
2023/04/28 06:58:48;;;;;;;;;;;7.00;99.90;;;;;;5062734;28;19966;-68
2023/04/28 07:01:13;;;;;;;;;;;7.00;99.90;;;;;;5073250;28;19925;-68
2023/04/28 07:03:38;;;;;;;;;;;7.10;99.90;;;;;;5068920;28;20321;-68
2023/04/28 07:06:04;;;;;;;;;;;7.20;99.90;;;;;;5073453;28;19989;-68
2023/04/28 07:08:30;;;;;;;;;;;7.30;99.90;;;;;;5073264;28;19924;-68
2023/04/28 07:10:55;;;;;;;;;;;7.30;99.90;;;;;;5063559;28;19925;-68
2023/04/28 07:13:21;;;;;;;;;;;7.30;99.90;;;;;;5053017;28;19968;-68
2023/04/28 07:15:46;;;;;;;;;;;7.40;99.90;;;;;;5053642;28;19963;-68
2023/04/28 07:18:12;;;;;;;;;;;7.50;99.90;;;;;;5041036;28;20008;-68
2023/04/28 07:20:37;;;;;;;;;;;7.50;99.90;;;;;;5071973;28;19927;-70
2023/04/28 07:23:03;;;;;;;;;;;7.60;99.90;;;;;;5072869;28;19932;-70
2023/04/28 07:25:29;;;;;;;;;;;7.70;99.90;;;;;;5073807;28;19925;-70
2023/04/28 07:27:55;;;;;;;;;;;7.80;99.90;;;;;;5071026;28;19933;-71
2023/04/28 07:30:20;;;;;;;;;;;7.80;99.90;;;;;;5036725;28;19931;-69
2023/04/28 07:32:46;;;;;;;;;;;7.80;99.90;;;;;;5073141;28;19925;-69
2023/04/28 07:35:12;;;;;;;;;;;7.80;99.90;;;;;;5072080;28;20263;-68
2023/04/28 07:37:37;;;;;;;;;;;7.80;99.90;;;;;;5071978;28;19930;-69
2023/04/28 07:40:04;;;;;;;;;;;7.80;99.90;;;;;;5073184;28;20007;-69
2023/04/28 07:42:29;;;;;;;;;;;7.80;99.90;;;;;;5054732;28;19925;-69
2023/04/28 07:44:57;;;;;;;;;;;7.80;99.90;;;;;;5052455;28;19969;-68
2023/04/28 07:47:22;;;;;;;;;;;7.80;99.90;;;;;;5071765;28;19933;-69
2023/04/28 07:49:48;;;;;;;;;;;7.80;99.90;;;;;;5071806;28;19959;-69
2023/04/28 07:52:13;;;;;;;;;;;7.90;99.90;;;;;;5072631;28;19978;-69
2023/04/28 07:54:39;;;;;;;;;;;7.90;99.90;;;;;;5071811;28;20293;-69
2023/04/28 07:57:05;;;;;;;;;;;7.80;99.90;;;;;;5072868;28;19929;-70
2023/04/28 07:59:34;;;;;;;;;;;7.90;99.90;;;;;;5054887;28;20411;-70
2023/04/28 08:02:00;;;;;;;;;;;7.90;99.90;;;;;;5072000;28;20267;-70
2023/04/28 08:04:25;;;;;;;;;;;7.90;99.90;;;;;;5072111;28;20015;-70
2023/04/28 08:06:51;;;;;;;;;;;7.90;99.90;;;;;;5072762;28;19935;-69
2023/04/28 08:09:17;;;;;;;;;;;8.00;99.90;;;;;;5034045;28;20019;-70
2023/04/28 08:11:43;;;;;;;;;;;8.00;99.90;;;;;;5052690;28;20012;-69
2023/04/28 08:14:08;;;;;;;;;;;8.00;99.90;;;;;;5057123;28;19925;-69
2023/04/28 08:16:37;;;;;;;;;;;8.10;99.90;;;;;;5058236;28;19924;-69
2023/04/28 08:19:03;;;;;;;;;;;8.20;99.90;;;;;;5044407;28;19975;-69
2023/04/28 08:21:33;;;;;;;;;;;8.10;99.90;;;;;;5059188;28;19936;-69
2023/04/28 08:24:01;;;;;;;;;;;8.10;99.90;;;;;;5076335;28;20011;-69
2023/04/28 08:26:27;;;;;;;;;;;8.10;99.90;;;;;;5056064;28;20287;-69
2023/04/28 08:28:52;;;;;;;;;;;8.20;99.90;;;;;;5072818;28;19924;-69
2023/04/28 08:31:18;;;;;;;;;;;8.20;99.90;;;;;;5061650;28;20020;-70
2023/04/28 08:33:47;;;;;;;;;;;8.20;99.90;;;;;;5064340;28;19931;-69
2023/04/28 08:36:13;;;;;;;;;;;8.20;99.90;;;;;;5075005;28;19935;-69
2023/04/28 08:38:39;;;;;;;;;;;8.30;99.90;;;;;;5075553;28;19970;-69
2023/04/28 08:41:05;;;;;;;;;;;8.20;99.90;;;;;;5075101;28;19924;-68
2023/04/28 08:43:38;;;;;;;;;;;8.30;99.90;;;;;;5075515;28;19931;-69
2023/04/28 08:46:05;;;;;;;;;;;8.30;99.90;;;;;;5055564;28;20016;-68
2023/04/28 08:48:37;;;;;;;;;;;8.40;99.90;;;;;;5059223;28;19947;-69
2023/04/28 08:51:03;;;;;;;;;;;8.40;99.90;;;;;;5075926;28;19924;-68
2023/04/28 08:53:28;;;;;;;;;;;8.30;99.90;;;;;;5073229;28;19939;-68
2023/04/28 08:55:57;;;;;;;;;;;8.40;99.90;;;;;;5071716;28;20329;-69
2023/04/28 08:58:24;;;;;;;;;;;8.50;99.90;;;;;;5059837;28;19930;-70
2023/04/28 09:00:50;;;;;;;;;;;8.40;99.90;;;;;;5068201;28;19925;-69
2023/04/28 09:03:16;;;;;;;;;;;8.50;99.90;;;;;;5056677;28;19924;-69
2023/04/28 09:05:42;;;;;;;;;;;8.60;99.90;;;;;;5056401;28;20402;-68
2023/04/28 09:08:07;;;;;;;;;;;8.60;99.90;;;;;;5075201;28;19928;-69
2023/04/28 09:10:33;;;;;;;;;;;8.70;99.90;;;;;;5074621;28;19925;-69
2023/04/28 09:12:58;;;;;;;;;;;8.80;99.90;;;;;;5075104;28;19982;-69
2023/04/28 09:15:28;;;;;;;;;;;8.90;99.90;;;;;;5055380;28;19925;-69
2023/04/28 09:17:54;;;;;;;;;;;9.00;99.90;;;;;;5057095;28;20476;-69
2023/04/28 09:20:24;;;;;;;;;;;9.10;99.90;;;;;;5073975;28;19960;-69
2023/04/28 09:22:50;;;;;;;;;;;9.20;99.90;;;;;;5074663;28;19986;-69
2023/04/28 09:25:17;;;;;;;;;;;9.30;99.90;;;;;;5073257;28;19929;-69
2023/04/28 09:27:43;;;;;;;;;;;9.40;99.90;;;;;;5075082;28;19932;-68
2023/04/28 09:30:08;;;;;;;;;;;9.40;99.90;;;;;;5071844;28;19932;-68
2023/04/28 09:32:35;;;;;;;;;;;9.50;99.90;;;;;;5060835;28;19978;-68
2023/04/28 09:35:01;;;;;;;;;;;9.60;99.90;;;;;;5073203;28;19925;-69
2023/04/28 09:37:29;;;;;;;;;;;9.60;99.90;;;;;;5059156;28;19931;-69
2023/04/28 09:39:55;;;;;;;;;;;9.70;99.90;;;;;;5054407;28;19932;-69
2023/04/28 09:42:40;;;;;;;;;;;9.80;99.90;;;;;;5055277;28;19978;-69
2023/04/28 09:45:06;;;;;;;;;;;9.80;99.90;;;;;;5069586;28;19925;-69
2023/04/28 09:47:34;;;;;;;;;;;9.90;99.90;;;;;;5073318;28;19951;-69
2023/04/28 09:50:00;;;;;;;;;;;10.10;99.90;;;;;;5055861;28;20435;-69
2023/04/28 09:52:26;;;;;;;;;;;10.40;99.90;;;;;;5055288;28;19925;-69
2023/04/28 09:54:52;;;;;;;;;;;10.80;99.90;;;;;;5053065;28;20011;-68
2023/04/28 09:57:18;;;;;;;;;;;11.20;99.90;;;;;;5059432;28;20349;-69
2023/04/28 09:59:46;;;;;;;;;;;11.30;99.90;;;;;;5074629;28;19929;-69
2023/04/28 10:02:13;;;;;;;;;;;11.80;99.90;;;;;;5073620;28;19932;-69
2023/04/28 10:04:39;;;;;;;;;;;12.10;99.90;;;;;;5071815;28;19925;-69
2023/04/28 10:07:04;;;;;;;;;;;12.30;99.90;;;;;;5074233;28;19947;-69
2023/04/28 10:09:31;;;;;;;;;;;12.20;99.90;;;;;;5074307;28;19925;-69
2023/04/28 10:11:56;;;;;;;;;;;12.20;99.90;;;;;;5073131;28;20457;-69
2023/04/28 10:14:23;;;;;;;;;;;12.20;99.90;;;;;;5055504;28;20035;-69
2023/04/28 10:16:50;;;;;;;;;;;12.00;99.90;;;;;;5058732;28;20007;-69
2023/04/28 10:19:16;;;;;;;;;;;12.00;99.90;;;;;;5073697;28;20440;-69
2023/04/28 10:21:46;;;;;;;;;;;12.00;99.90;;;;;;5072515;28;19924;-69
2023/04/28 10:24:17;;;;;;;;;;;12.00;99.90;;;;;;5073937;28;19946;-69
2023/04/28 10:26:57;;;;;;;;;;;12.10;99.90;;;;;;5057456;28;20426;-69
2023/04/28 10:29:26;;;;;;;;;;;12.00;99.90;;;;;;5060647;28;20278;-69
2023/04/28 10:32:10;;;;;;;;;;;12.10;99.90;;;;;;5070873;28;19967;-69
2023/04/28 10:34:36;;;;;;;;;;;12.20;99.90;;;;;;5068770;28;20408;-69
2023/04/28 10:37:01;;;;;;;;;;;12.40;99.90;;;;;;5072757;28;19928;-69
2023/04/28 10:39:27;;;;;;;;;;;12.60;99.90;;;;;;5040386;28;19929;-69
2023/04/28 10:41:52;;;;;;;;;;;12.90;99.90;;;;;;5064185;28;19975;-69
2023/04/28 10:44:27;;;;;;;;;;;13.20;99.90;;;;;;5070571;28;19950;-69
2023/04/28 10:47:02;;;;;;;;;;;13.40;99.90;;;;;;5070731;28;19978;-70
2023/04/28 10:49:47;;;;;;;;;;;13.40;99.90;;;;;;5073062;28;20387;-69
2023/04/28 10:52:39;;;;;;;;;;;13.40;99.90;;;;;;5070923;28;19931;-69
2023/04/28 10:55:23;;;;;;;;;;;13.40;99.90;;;;;;5035929;28;20275;-69
2023/04/28 10:58:08;;;;;;;;;;;13.30;99.90;;;;;;5073225;28;20309;-69
2023/04/28 11:00:34;;;;;;;;;;;13.20;99.90;;;;;;5053033;28;19986;-68
2023/04/28 11:03:00;;;;;;;;;;;13.00;99.90;;;;;;5052995;28;20371;-69
2023/04/28 11:05:26;;;;;;;;;;;12.90;99.90;;;;;;5063638;28;20023;-69
2023/04/28 11:08:10;;;;;;;;;;;12.70;99.90;;;;;;5073349;28;20309;-70
2023/04/28 11:10:54;;;;;;;;;;;12.60;99.90;;;;;;5072554;28;20396;-70
2023/04/28 11:13:33;;;;;;;;;;;12.50;99.90;;;;;;5069040;28;20285;-69
2023/04/28 11:16:01;;;;;;;;;;;12.40;99.90;;;;;;5052887;28;20405;-70
2023/04/28 11:18:27;;;;;;;;;;;12.20;99.90;;;;;;5065605;28;19928;-70
2023/04/28 11:20:56;;;;;;;;;;;12.10;99.90;;;;;;5071375;28;19946;-70
2023/04/28 11:23:23;;;;;;;;;;;12.10;99.90;;;;;;5050878;28;20378;-70
2023/04/28 11:25:52;;;;;;;;;;;12.00;99.90;;;;;;5052735;28;20329;-70
2023/04/28 11:28:18;;;;;;;;;;;12.00;99.90;;;;;;5051364;28;19968;-70
2023/04/28 11:30:44;;;;;;;;;;;12.00;99.90;;;;;;5064287;28;20039;-70
2023/04/28 11:33:10;;;;;;;;;;;11.90;99.90;;;;;;5072487;28;20301;-69
2023/04/28 11:35:41;;;;;;;;;;;11.80;99.90;;;;;;5069276;28;19951;-70
2023/04/28 11:38:07;;;;;;;;;;;11.70;99.90;;;;;;5071810;28;20016;-70
2023/04/28 11:40:32;;;;;;;;;;;11.80;99.90;;;;;;5062636;28;19967;-70
2023/04/28 11:42:58;;;;;;;;;;;11.80;99.90;;;;;;5054676;28;20122;-70
2023/04/28 11:45:24;;;;;;;;;;;11.80;99.90;;;;;;5055362;28;20397;-70
2023/04/28 11:47:49;;;;;;;;;;;11.80;99.90;;;;;;5051210;28;19979;-70
2023/04/28 11:50:15;;;;;;;;;;;11.80;99.90;;;;;;5052881;28;19948;-70
2023/04/28 11:52:47;;;;;;;;;;;11.80;99.90;;;;;;5065961;28;19924;-70
2023/04/28 11:55:15;;;;;;;;;;;11.90;99.90;;;;;;5064039;28;20274;-70
2023/04/28 11:57:40;;;;;;;;;;;12.00;99.90;;;;;;5052542;28;19941;-69
2023/04/28 12:00:13;;;;;;;;;;;12.00;99.90;;;;;;5070602;28;19924;-70
2023/04/28 12:02:39;;;;;;;;;;;12.10;99.90;;;;;;5053031;28;19962;-70
2023/04/28 12:05:05;;;;;;;;;;;12.10;99.90;;;;;;5052315;28;19924;-70
2023/04/28 12:07:39;;;;;;;;;;;12.10;99.90;;;;;;5063290;28;20285;-70
2023/04/28 12:10:08;;;;;;;;;;;12.10;99.90;;;;;;5058605;28;19932;-69
2023/04/28 12:12:33;;;;;;;;;;;12.00;99.90;;;;;;5041864;28;19932;-69
2023/04/28 12:15:00;;;;;;;;;;;12.10;99.90;;;;;;5072319;28;19924;-68
2023/04/28 12:17:36;;;;;;;;;;;12.10;99.90;;;;;;5058727;28;19925;-69
2023/04/28 12:20:03;;;;;;;;;;;12.10;99.90;;;;;;5035992;28;19929;-69
2023/04/28 12:22:29;;;;;;;;;;;12.10;99.90;;;;;;5070999;28;19929;-69
2023/04/28 12:25:04;;;;;;;;;;;12.10;99.90;;;;;;5061845;28;19974;-70
2023/04/28 12:27:31;;;;;;;;;;;12.00;99.90;;;;;;5052501;28;19925;-70
2023/04/28 12:29:57;;;;;;;;;;;12.10;99.90;;;;;;5052410;28;19933;-70
2023/04/28 12:32:43;;;;;;;;;;;12.00;99.90;;;;;;5060785;28;20310;-69
2023/04/28 12:35:10;;;;;;;;;;;11.90;99.90;;;;;;5071493;28;19928;-70
2023/04/28 12:37:37;;;;;;;;;;;11.80;99.90;;;;;;5052970;28;19999;-70
2023/04/28 12:40:04;;;;;;;;;;;11.80;99.90;;;;;;5066798;28;19974;-70
2023/04/28 12:42:29;;;;;;;;;;;11.80;99.90;;;;;;5052696;28;19931;-70
2023/04/28 12:44:55;;;;;;;;;;;11.80;99.90;;;;;;5052748;28;19925;-70
2023/04/28 12:47:21;;;;;;;;;;;11.80;99.90;;;;;;5024544;28;19925;-70
2023/04/28 12:49:49;;;;;;;;;;;11.70;99.90;;;;;;5053914;28;19926;-70
2023/04/28 12:52:15;;;;;;;;;;;11.70;99.90;;;;;;5070449;28;19991;-70
2023/04/28 12:54:45;;;;;;;;;;;11.80;99.90;;;;;;5051448;28;19950;-69
2023/04/28 12:57:12;;;;;;;;;;;11.70;99.90;;;;;;5072005;28;20313;-70
2023/04/28 12:59:38;;;;;;;;;;;11.90;99.90;;;;;;5074112;28;19933;-70
2023/04/28 13:02:03;;;;;;;;;;;11.90;99.90;;;;;;5074118;28;19929;-70
2023/04/28 13:04:29;;;;;;;;;;;12.00;99.90;;;;;;5074757;28;19924;-70
2023/04/28 13:06:57;;;;;;;;;;;12.00;99.90;;;;;;5075364;28;19924;-70
2023/04/28 13:09:23;;;;;;;;;;;12.00;99.90;;;;;;5074658;28;19932;-70
2023/04/28 13:11:49;;;;;;;;;;;12.10;99.90;;;;;;5067098;28;19925;-70
2023/04/28 13:14:15;;;;;;;;;;;12.30;99.90;;;;;;5055509;28;20382;-70
2023/04/28 13:16:40;;;;;;;;;;;12.40;99.90;;;;;;5055815;28;20326;-70
2023/04/28 13:19:12;;;;;;;;;;;12.40;99.90;;;;;;5056370;28;19925;-70
2023/04/28 13:21:41;;;;;;;;;;;12.50;99.90;;;;;;5074272;28;20294;-70
2023/04/28 13:24:07;;;;;;;;;;;12.40;99.90;;;;;;5073529;28;19970;-70
2023/04/28 13:26:33;;;;;;;;;;;12.30;99.90;;;;;;5074696;28;19931;-70
2023/04/28 13:29:00;;;;;;;;;;;12.20;99.90;;;;;;5074318;28;19928;-70
2023/04/28 13:31:26;;;;;;;;;;;12.10;99.90;;;;;;5071198;28;19975;-70
2023/04/28 13:33:51;;;;;;;;;;;12.10;99.90;;;;;;5074310;28;19925;-70
2023/04/28 13:36:17;;;;;;;;;;;12.00;99.90;;;;;;5056853;28;20367;-70
2023/04/28 13:38:47;;;;;;;;;;;12.00;99.90;;;;;;5052853;28;20007;-70
2023/04/28 13:41:13;;;;;;;;;;;11.90;99.90;;;;;;5074620;28;19928;-70
2023/04/28 13:43:39;;;;;;;;;;;11.90;99.90;;;;;;5074546;28;20013;-70
2023/04/28 13:46:07;;;;;;;;;;;11.90;99.90;;;;;;5065089;28;19979;-70
2023/04/28 13:48:34;;;;;;;;;;;11.90;99.90;;;;;;5070245;28;19979;-70
2023/04/28 13:50:59;;;;;;;;;;;11.80;99.90;;;;;;5057652;28;19924;-71
2023/04/28 13:53:25;;;;;;;;;;;11.80;99.90;;;;;;5039990;28;19925;-70
2023/04/28 13:55:52;;;;;;;;;;;11.80;99.90;;;;;;5050298;28;20217;-70
2023/04/28 13:58:18;;;;;;;;;;;11.80;99.90;;;;;;5036148;28;20367;-70
2023/04/28 14:00:44;;;;;;;;;;;11.70;99.90;;;;;;5072409;28;19929;-70
2023/04/28 14:03:10;;;;;;;;;;;11.70;99.90;;;;;;5073317;28;20298;-70
2023/04/28 14:05:35;;;;;;;;;;;11.60;99.90;;;;;;5053786;28;19932;-70
2023/04/28 14:08:02;;;;;;;;;;;11.50;99.90;;;;;;5073283;28;19932;-70
2023/04/28 14:10:28;;;;;;;;;;;11.50;99.90;;;;;;5071091;28;19960;-70
2023/04/28 14:12:53;;;;;;;;;;;11.40;99.90;;;;;;5073808;28;19939;-70
2023/04/28 14:15:19;;;;;;;;;;;11.40;99.90;;;;;;5054722;28;20011;-70
2023/04/28 14:17:44;;;;;;;;;;;11.30;99.90;;;;;;5069124;28;19925;-71
2023/04/28 14:20:10;;;;;;;;;;;11.30;99.90;;;;;;5071844;28;20392;-70
2023/04/28 14:22:39;;;;;;;;;;;11.30;99.90;;;;;;5072506;28;19925;-70